Terminal Aerodrome Forecast
Issued by NWS Buffalo, NY

Home | Current Version | Previous Version | Text Only | Print | Product List | Glossary On
Versions: 1 2 3 4 5 6 7 8 9 10 11 12 13 14 15 16 17 18 19 20 21 22 23 24 25 26
248
FTUS41 KBUF 190520
TAFROC
TAF
KROC 190520Z 1906/2006 25011KT P6SM OVC012
     FM190800 25009KT P6SM OVC008
     FM191500 26008KT P6SM OVC012
     FM200000 VRB03KT P6SM OVC020=

USA.gov is the U.S. government's official web portal to all federal, state and local government web resources and services.